createdAt,value
2019-05-15T00:01:55.339Z,102503.27
2019-05-15T00:04:25.522Z,102504.95
2019-05-15T00:06:58.119Z,102508.88
2019-05-15T00:09:28.667Z,102498.11
2019-05-15T00:11:59.169Z,102501.90
2019-05-15T00:14:30.040Z,102500.20
2019-05-15T00:17:00.198Z,102504.11
2019-05-15T00:19:30.942Z,102498.00
2019-05-15T00:22:01.133Z,102501.21
2019-05-15T00:24:31.582Z,102496.59
2019-05-15T00:27:02.485Z,102491.70
2019-05-15T00:29:32.697Z,102483.77
2019-05-15T00:32:03.709Z,102484.95
2019-05-15T00:34:34.045Z,102481.02
2019-05-15T00:37:04.133Z,102481.98
2019-05-15T00:39:34.252Z,102478.44
2019-05-15T00:42:04.371Z,102476.02
2019-05-15T00:44:34.493Z,102471.02
2019-05-15T00:47:04.702Z,102474.59
2019-05-15T00:49:38.098Z,102472.74
2019-05-15T00:52:11.950Z,102462.52
2019-05-15T00:54:39.426Z,102459.30
2019-05-15T00:57:09.561Z,102459.55
2019-05-15T00:59:40.903Z,102458.61
2019-05-15T01:02:12.095Z,102466.61
2019-05-15T01:04:43.307Z,102462.72
2019-05-15T01:07:15.470Z,102471.63
2019-05-15T01:09:48.543Z,102473.31
2019-05-15T01:12:21.690Z,102470.18
2019-05-15T01:14:52.044Z,102468.86
2019-05-15T01:17:22.328Z,102466.16
2019-05-15T01:19:52.875Z,102464.72
2019-05-15T01:22:23.233Z,102464.75
2019-05-15T01:24:53.794Z,102463.05
2019-05-15T01:27:24.272Z,102462.91
2019-05-15T01:29:54.675Z,102465.00
2019-05-15T01:32:25.029Z,102467.59
2019-05-15T01:34:55.306Z,102470.67
2019-05-15T01:37:25.523Z,102469.77
2019-05-15T01:39:57.997Z,102474.96
2019-05-15T01:42:28.095Z,102474.36
2019-05-15T01:44:59.034Z,102465.48
2019-05-15T01:47:29.285Z,102468.48
2019-05-15T01:49:59.425Z,102464.13
2019-05-15T01:52:30.737Z,102457.81
2019-05-15T01:55:00.906Z,102458.02
2019-05-15T01:57:31.100Z,102458.86
2019-05-15T02:00:02.794Z,102460.21
2019-05-15T02:02:33.064Z,102453.63
2019-05-15T02:05:05.072Z,102459.64
2019-05-15T02:07:36.137Z,102456.42
2019-05-15T02:10:09.160Z,102459.53
2019-05-15T02:12:39.477Z,102464.39
2019-05-15T02:15:10.720Z,102471.34
2019-05-15T02:17:42.760Z,102472.41
2019-05-15T02:20:13.038Z,102467.25
2019-05-15T02:22:43.430Z,102471.50
2019-05-15T02:25:13.782Z,102463.05
2019-05-15T02:27:44.063Z,102475.81
2019-05-15T02:30:24.221Z,102465.10
2019-05-15T02:32:49.868Z,102464.66
2019-05-15T02:35:19.707Z,102460.20
2019-05-15T02:37:51.790Z,102468.13
2019-05-15T02:40:22.795Z,102461.25
2019-05-15T02:42:54.981Z,102464.66
2019-05-15T02:45:25.066Z,102455.45
2019-05-15T02:48:00.227Z,102456.38
2019-05-15T02:50:32.035Z,102451.44
2019-05-15T02:53:02.665Z,102458.98
2019-05-15T02:55:40.600Z,102461.47
2019-05-15T02:58:10.893Z,102462.86
2019-05-15T03:00:48.395Z,102463.70
2019-05-15T03:03:12.834Z,102464.53
2019-05-15T03:05:44.254Z,102464.06
2019-05-15T03:08:14.398Z,102469.09
2019-05-15T03:10:49.787Z,102463.16
2019-05-15T03:13:20.241Z,102464.95
2019-05-15T03:15:50.347Z,102470.48
2019-05-15T03:18:20.469Z,102467.85
2019-05-15T03:20:53.343Z,102469.40
2019-05-15T03:23:29.174Z,102470.72
2019-05-15T03:26:02.997Z,102467.52
2019-05-15T03:28:29.656Z,102470.42
2019-05-15T03:31:22.348Z,102468.00
2019-05-15T03:33:36.410Z,102471.19
2019-05-15T03:36:03.948Z,102468.45
2019-05-15T03:38:39.604Z,102468.09
2019-05-15T03:41:10.721Z,102469.00
2019-05-15T03:43:41.167Z,102464.81
2019-05-15T03:46:11.794Z,102461.56
2019-05-15T03:48:42.257Z,102458.38
2019-05-15T03:51:13.143Z,102461.63
2019-05-15T03:53:49.470Z,102456.06
2019-05-15T03:56:19.606Z,102453.87
2019-05-15T03:58:49.889Z,102459.36
2019-05-15T04:01:30.246Z,102463.58
2019-05-15T04:03:52.506Z,102465.94
2019-05-15T04:06:29.620Z,102468.56
2019-05-15T04:08:59.175Z,102466.86
2019-05-15T04:11:29.654Z,102465.62
2019-05-15T04:14:02.638Z,102469.20
2019-05-15T04:16:32.829Z,102475.09
2019-05-15T04:19:03.528Z,102463.59
2019-05-15T04:21:34.590Z,102476.17
2019-05-15T04:24:15.211Z,102466.01
2019-05-15T04:26:48.715Z,102475.77
2019-05-15T04:29:19.621Z,102476.81
2019-05-15T04:31:59.816Z,102479.12
2019-05-15T04:34:29.019Z,102486.20
2019-05-15T04:37:01.756Z,102477.55
2019-05-15T04:39:34.746Z,102479.39
2019-05-15T04:42:15.574Z,102488.44
2019-05-15T04:44:45.952Z,102480.95
2019-05-15T04:47:19.257Z,102476.81
2019-05-15T04:49:50.694Z,102481.04
2019-05-15T04:52:23.008Z,102478.64
2019-05-15T04:54:53.233Z,102485.66
2019-05-15T04:57:23.560Z,102484.86
2019-05-15T04:59:54.442Z,102476.30
2019-05-15T05:02:27.102Z,102477.61
2019-05-15T05:04:58.847Z,102481.87
2019-05-15T05:07:32.216Z,102485.97
2019-05-15T05:10:02.749Z,102488.88
2019-05-15T05:12:43.408Z,102485.28
2019-05-15T05:15:20.921Z,102485.36
2019-05-15T05:17:51.945Z,102490.81
2019-05-15T05:20:48.483Z,102484.23
2019-05-15T05:23:23.947Z,102488.26
2019-05-15T05:25:58.628Z,102492.11
2019-05-15T05:28:29.123Z,102481.77
2019-05-15T05:31:02.603Z,102484.10
2019-05-15T05:33:33.315Z,102477.30
2019-05-15T05:36:03.661Z,102478.25
2019-05-15T05:38:34.210Z,102482.81
2019-05-15T05:41:04.931Z,102483.83
2019-05-15T05:43:38.095Z,102483.60
2019-05-15T05:46:09.271Z,102477.09
2019-05-15T05:48:39.951Z,102480.84
2019-05-15T05:51:10.244Z,102480.67
2019-05-15T05:53:40.549Z,102482.15
2019-05-15T05:56:10.712Z,102480.56
2019-05-15T05:58:41.555Z,102476.67
2019-05-15T06:01:11.937Z,102485.11
2019-05-15T06:03:42.096Z,102478.59
2019-05-15T06:06:18.625Z,102485.39
2019-05-15T06:08:49.890Z,102478.53
2019-05-15T06:11:20.255Z,102468.89
2019-05-15T06:13:52.602Z,102468.66
2019-05-15T06:16:22.433Z,102466.15
2019-05-15T06:18:52.651Z,102464.95
2019-05-15T06:21:22.870Z,102468.67
2019-05-15T06:24:06.269Z,102461.78
2019-05-15T06:26:38.580Z,102460.64
2019-05-15T06:29:09.156Z,102458.55
2019-05-15T06:31:39.357Z,102465.39
2019-05-15T06:34:10.791Z,102463.73
2019-05-15T06:36:42.515Z,102463.38
2019-05-15T06:39:12.948Z,102459.11
2019-05-15T06:41:43.351Z,102454.84
2019-05-15T06:44:15.235Z,102455.89
2019-05-15T06:46:45.405Z,102454.30
2019-05-15T06:49:17.850Z,102455.75
2019-05-15T06:51:48.811Z,102459.91
2019-05-15T06:54:19.707Z,102456.01
2019-05-15T06:56:49.977Z,102455.70
2019-05-15T06:59:20.434Z,102460.20
2019-05-15T07:01:50.957Z,102448.48
2019-05-15T07:04:21.231Z,102447.25
2019-05-15T07:06:51.409Z,102443.90
2019-05-15T07:09:21.658Z,102440.08
2019-05-15T07:11:52.223Z,102446.38
2019-05-15T07:14:23.573Z,102442.47
2019-05-15T07:16:53.973Z,102442.61
2019-05-15T07:19:24.222Z,102442.67
2019-05-15T07:21:54.473Z,102437.52
2019-05-15T07:24:25.737Z,102435.83
2019-05-15T07:26:59.041Z,102432.36
2019-05-15T07:29:30.657Z,102431.58
2019-05-15T07:32:00.777Z,102426.66
2019-05-15T07:34:31.063Z,102428.92
2019-05-15T07:37:04.121Z,102429.45
2019-05-15T07:39:34.462Z,102422.50
2019-05-15T07:42:08.584Z,102422.15
2019-05-15T07:44:40.949Z,102429.80
2019-05-15T07:47:19.334Z,102426.67
2019-05-15T07:49:49.774Z,102415.64
2019-05-15T07:52:20.060Z,102417.55
2019-05-15T07:54:50.501Z,102409.63
2019-05-15T07:57:20.648Z,102407.00
2019-05-15T07:59:50.816Z,102410.20
2019-05-15T08:02:22.269Z,102414.66
2019-05-15T08:04:53.010Z,102400.13
2019-05-15T08:07:25.136Z,102398.88
2019-05-15T08:09:58.844Z,102398.44
2019-05-15T08:12:28.309Z,102402.05
2019-05-15T08:14:58.586Z,102390.67
2019-05-15T08:17:29.959Z,102389.80
2019-05-15T08:20:00.263Z,102388.50
2019-05-15T08:22:31.012Z,102394.27
2019-05-15T08:25:07.670Z,102392.63
2019-05-15T08:27:40.008Z,102391.31
2019-05-15T08:30:13.808Z,102385.66
2019-05-15T08:32:44.105Z,102384.84
2019-05-15T08:35:19.350Z,102381.83
2019-05-15T08:37:50.116Z,102371.73
2019-05-15T08:40:21.567Z,102372.63
2019-05-15T08:42:57.257Z,102364.67
2019-05-15T08:45:24.065Z,102356.73
2019-05-15T08:47:54.390Z,102368.73
2019-05-15T08:50:25.142Z,102358.54
2019-05-15T08:52:57.872Z,102351.03
2019-05-15T08:55:28.169Z,102338.62
2019-05-15T08:58:07.556Z,102342.61
2019-05-15T09:00:30.314Z,102343.05
2019-05-15T09:03:00.512Z,102346.16
2019-05-15T09:05:31.993Z,102335.08
2019-05-15T09:08:03.363Z,102342.14
2019-05-15T09:10:34.092Z,102338.12
2019-05-15T09:13:04.246Z,102328.38
2019-05-15T09:15:39.590Z,102317.70
2019-05-15T09:18:15.988Z,102323.78
2019-05-15T09:20:42.467Z,102318.03
2019-05-15T09:23:12.610Z,102309.66
2019-05-15T09:25:43.194Z,102319.90
2019-05-15T09:28:13.375Z,102304.77
2019-05-15T09:30:48.132Z,102296.55
2019-05-15T09:33:20.083Z,102295.42
2019-05-15T09:35:58.329Z,102290.81
2019-05-15T09:38:28.996Z,102280.44
2019-05-15T09:40:59.339Z,102276.49
2019-05-15T09:43:30.681Z,102271.53
2019-05-15T09:46:00.948Z,102263.92
2019-05-15T09:48:33.702Z,102257.92
2019-05-15T09:51:04.055Z,102262.84
2019-05-15T09:53:34.228Z,102252.00
2019-05-15T09:56:04.491Z,102254.44
2019-05-15T09:58:34.767Z,102248.28
2019-05-15T10:01:04.953Z,102243.02
2019-05-15T10:03:39.115Z,102243.41
2019-05-15T10:06:09.059Z,102239.91
2019-05-15T10:08:39.932Z,102246.22
2019-05-15T10:11:10.293Z,102236.48
2019-05-15T10:13:40.544Z,102237.73
2019-05-15T10:16:10.641Z,102230.72
2019-05-15T10:18:40.834Z,102237.63
2019-05-15T10:21:10.989Z,102227.22
2019-05-15T10:23:41.201Z,102226.17
2019-05-15T10:26:14.269Z,102209.73
2019-05-15T10:28:43.305Z,102216.44
2019-05-15T10:31:13.491Z,102208.44
2019-05-15T10:33:43.605Z,102215.24
2019-05-15T10:36:13.687Z,102206.30
2019-05-15T10:38:44.829Z,102205.42
2019-05-15T10:41:15.398Z,102198.00
2019-05-15T10:43:55.964Z,102198.37
2019-05-15T10:46:19.521Z,102182.63
2019-05-15T10:48:49.755Z,102180.48
2019-05-15T10:51:19.941Z,102172.26
2019-05-15T10:53:50.962Z,102173.97
2019-05-15T10:56:24.479Z,102175.89
2019-05-15T10:58:54.769Z,102184.53
2019-05-15T11:01:24.944Z,102182.78
2019-05-15T11:03:55.210Z,102169.74
2019-05-15T11:06:25.502Z,102163.42
2019-05-15T11:08:58.191Z,102165.41
2019-05-15T11:11:27.566Z,102160.72
2019-05-15T11:14:00.363Z,102153.20
2019-05-15T11:16:30.370Z,102150.53
2019-05-15T11:19:00.638Z,102146.28
2019-05-15T11:21:30.783Z,102141.20
2019-05-15T11:24:00.910Z,102137.18
2019-05-15T11:26:33.563Z,102126.94
2019-05-15T11:29:03.334Z,102123.58
2019-05-15T11:31:33.421Z,102129.64
2019-05-15T11:34:03.541Z,102120.06
2019-05-15T11:36:33.733Z,102124.63
2019-05-15T11:39:05.619Z,102133.38
2019-05-15T11:41:38.574Z,102126.13
2019-05-15T11:44:09.041Z,102115.31
2019-05-15T11:46:39.372Z,102123.33
2019-05-15T11:49:09.642Z,102124.86
2019-05-15T11:51:45.079Z,102118.69
2019-05-15T11:54:15.689Z,102115.75
2019-05-15T11:56:48.994Z,102107.70
2019-05-15T11:59:19.032Z,102104.98
2019-05-15T12:01:49.184Z,102100.44
2019-05-15T12:04:30.250Z,102100.75
2019-05-15T12:07:01.582Z,102098.82
2019-05-15T12:09:24.135Z,102100.80
2019-05-15T12:11:54.424Z,102094.78
2019-05-15T12:14:25.640Z,102089.69
2019-05-15T12:17:07.105Z,102089.54
2019-05-15T12:19:29.358Z,102093.09
2019-05-15T12:22:00.008Z,102094.19
2019-05-15T12:24:35.248Z,102078.72
2019-05-15T12:27:13.884Z,102077.28
2019-05-15T12:29:35.026Z,102068.08
2019-05-15T12:32:23.504Z,102078.89
2019-05-15T12:34:38.847Z,102076.52
2019-05-15T12:37:09.955Z,102078.95
2019-05-15T12:39:41.067Z,102064.09
2019-05-15T13:00:02.154Z,102046.48
2019-05-15T13:02:34.222Z,102056.50
2019-05-15T13:05:05.197Z,102058.13
2019-05-15T13:07:35.395Z,102056.33
2019-05-15T13:10:08.670Z,102048.59
2019-05-15T13:12:55.315Z,102053.39
2019-05-15T13:15:11.180Z,102050.50
2019-05-15T13:17:44.139Z,102052.34
2019-05-15T13:20:14.822Z,102046.58
2019-05-15T13:25:18.815Z,102044.69
2019-05-15T13:27:49.873Z,102031.82
2019-05-15T13:30:21.348Z,102036.32
2019-05-15T13:32:53.087Z,102031.88
2019-05-15T13:35:23.298Z,102033.81
2019-05-15T13:37:58.606Z,102029.84
2019-05-15T13:40:38.105Z,102031.44
2019-05-15T13:43:08.266Z,102027.91
2019-05-15T13:45:42.592Z,102018.66
2019-05-15T13:48:12.727Z,102012.55
2019-05-15T13:50:43.161Z,102011.83
2019-05-15T13:53:13.324Z,102003.80
2019-05-15T13:55:43.596Z,102005.48
2019-05-15T13:58:14.123Z,101990.65
2019-05-15T14:00:48.982Z,101994.41
2019-05-15T14:03:18.613Z,101996.47
2019-05-15T14:05:49.904Z,101986.72
2019-05-15T14:08:20.308Z,101992.83
2019-05-15T14:10:50.926Z,101985.44
2019-05-15T14:13:22.631Z,101993.23
2019-05-15T14:15:55.136Z,101995.83
2019-05-15T14:18:30.082Z,101987.30
2019-05-15T14:21:00.482Z,101984.77
2019-05-15T14:23:31.098Z,101995.77
2019-05-15T14:26:15.121Z,101996.12
2019-05-15T14:28:38.800Z,101988.69
2019-05-15T14:31:09.801Z,101990.55
2019-05-15T14:33:40.516Z,101990.51
2019-05-15T14:36:12.687Z,101989.64
2019-05-15T14:38:44.383Z,101980.42
2019-05-15T14:41:19.029Z,101979.67
2019-05-15T14:43:49.676Z,101980.49
2019-05-15T14:46:23.039Z,101976.25
2019-05-15T14:48:53.264Z,101964.08
2019-05-15T14:51:24.951Z,101959.96
2019-05-15T14:53:58.336Z,101965.37
2019-05-15T14:56:28.268Z,101959.97
2019-05-15T14:58:58.698Z,101959.97
2019-05-15T15:01:29.074Z,101957.61
2019-05-15T15:03:59.297Z,101956.16
2019-05-15T15:06:31.034Z,101960.13
2019-05-15T15:09:03.959Z,101962.98
2019-05-15T15:11:38.354Z,101956.81
2019-05-15T15:14:08.568Z,101954.47
2019-05-15T15:16:40.056Z,101940.66
2019-05-15T15:19:10.303Z,101940.45
2019-05-15T15:21:41.113Z,101945.47
2019-05-15T15:24:11.313Z,101934.77
2019-05-15T15:26:41.568Z,101931.98
2019-05-15T15:29:14.902Z,101941.28
2019-05-15T15:31:45.033Z,101948.71
2019-05-15T15:34:15.834Z,101935.23
2019-05-15T15:36:48.439Z,101934.03
2019-05-15T15:39:18.596Z,101933.64
2019-05-15T15:41:48.778Z,101928.28
2019-05-15T15:44:19.974Z,101934.02
2019-05-15T15:46:50.344Z,101939.64
2019-05-15T15:49:21.606Z,101937.17
2019-05-15T15:51:51.775Z,101946.91
2019-05-15T15:54:22.039Z,101940.31
2019-05-15T15:56:55.853Z,101930.97
2019-05-15T15:59:28.812Z,101932.20
2019-05-15T16:02:09.491Z,101930.81
2019-05-15T16:04:41.777Z,101914.38
2019-05-15T16:07:18.451Z,101919.60
2019-05-15T16:09:53.316Z,101914.61
2019-05-15T16:12:24.351Z,101914.80
2019-05-15T16:14:54.533Z,101918.91
2019-05-15T16:17:24.723Z,101920.52
2019-05-15T16:19:57.001Z,101916.93
2019-05-15T16:22:28.368Z,101913.80
2019-05-15T16:25:02.155Z,101912.41
2019-05-15T16:27:30.678Z,101909.27
2019-05-15T16:30:01.034Z,101907.63
2019-05-15T16:32:32.154Z,101909.04
2019-05-15T16:35:03.736Z,101910.09
2019-05-15T16:37:34.948Z,101903.19
2019-05-15T16:40:05.796Z,101902.57
2019-05-15T16:42:39.287Z,101900.89
2019-05-15T16:45:09.983Z,101900.72
2019-05-15T16:47:40.565Z,101901.31
2019-05-15T16:50:18.043Z,101896.25
2019-05-15T16:52:49.970Z,101893.70
2019-05-15T16:55:23.875Z,101901.34
2019-05-15T16:57:53.968Z,101894.81
2019-05-15T17:00:24.146Z,101889.69
2019-05-15T17:03:08.571Z,101883.59
2019-05-15T17:05:29.109Z,101885.11
2019-05-15T17:07:59.426Z,101892.88
2019-05-15T17:10:29.680Z,101885.34
2019-05-15T17:13:03.666Z,101890.23
2019-05-15T17:15:38.372Z,101885.19
2019-05-15T17:18:08.945Z,101882.84
2019-05-15T17:20:39.307Z,101890.78
2019-05-15T17:23:11.599Z,101889.77
2019-05-15T17:25:43.259Z,101887.37
2019-05-15T17:28:18.491Z,101891.73
2019-05-15T17:30:49.511Z,101887.95
2019-05-15T17:33:19.710Z,101892.52
2019-05-15T17:35:53.032Z,101887.03
2019-05-15T17:38:23.508Z,101890.39
2019-05-15T17:40:58.937Z,101888.35
2019-05-15T17:43:30.523Z,101884.44
2019-05-15T17:46:01.499Z,101889.30
2019-05-15T17:48:31.968Z,101884.72
2019-05-15T17:51:06.269Z,101893.16
2019-05-15T17:53:40.539Z,101885.78
2019-05-15T17:56:14.750Z,101882.16
2019-05-15T17:58:44.859Z,101893.35
2019-05-15T18:01:16.085Z,101894.37
2019-05-15T18:03:48.564Z,101895.25
2019-05-15T18:06:19.126Z,101902.60
2019-05-15T18:08:49.415Z,101893.77
2019-05-15T18:11:20.421Z,101890.51
2019-05-15T18:13:50.521Z,101896.81
2019-05-15T18:16:20.775Z,101898.51
2019-05-15T18:18:51.469Z,101901.91
2019-05-15T18:21:22.732Z,101908.70
2019-05-15T18:23:55.060Z,101900.58
2019-05-15T18:26:25.236Z,101898.94
2019-05-15T18:28:55.350Z,101900.05
2019-05-15T18:31:25.633Z,101897.80
2019-05-15T18:33:55.902Z,101908.95
2019-05-15T18:36:30.391Z,101908.52
2019-05-15T18:39:01.454Z,101903.41
2019-05-15T18:41:32.844Z,101909.69
2019-05-15T18:44:03.506Z,101911.58
2019-05-15T18:46:34.702Z,101911.98
2019-05-15T18:49:06.053Z,101912.41
2019-05-15T18:51:42.855Z,101919.98
2019-05-15T18:54:12.972Z,101912.23
2019-05-15T18:56:43.116Z,101913.45
2019-05-15T18:59:13.293Z,101914.47
2019-05-15T19:01:44.365Z,101920.77
2019-05-15T19:04:14.824Z,101919.50
2019-05-15T19:06:50.037Z,101919.62
2019-05-15T19:09:23.842Z,101917.14
2019-05-15T19:11:58.183Z,101914.53
2019-05-15T19:14:28.865Z,101914.65
2019-05-15T19:16:59.310Z,101915.11
2019-05-15T19:19:30.721Z,101911.66
2019-05-15T19:22:01.586Z,101918.70
2019-05-15T19:24:31.695Z,101908.60
2019-05-15T19:27:01.968Z,101917.80
2019-05-15T19:29:32.383Z,101923.58
2019-05-15T19:32:02.679Z,101919.75
2019-05-15T19:34:33.993Z,101926.73
2019-05-15T19:37:05.266Z,101920.97
2019-05-15T19:39:35.524Z,101921.00
2019-05-15T19:42:11.625Z,101924.67
2019-05-15T19:44:42.112Z,101925.47
2019-05-15T19:47:12.883Z,101922.83
2019-05-15T19:49:48.358Z,101926.95
2019-05-15T19:52:20.904Z,101919.39
2019-05-15T19:54:54.701Z,101922.13
2019-05-15T19:57:30.879Z,101923.80
2019-05-15T20:00:08.827Z,101921.25
2019-05-15T20:02:40.456Z,101920.06
2019-05-15T20:05:10.792Z,101916.06
2019-05-15T20:07:41.250Z,101919.13
2019-05-15T20:10:15.105Z,101921.84
2019-05-15T20:12:47.943Z,101920.55
2019-05-15T20:15:22.428Z,101915.23
2019-05-15T20:17:53.894Z,101921.52
2019-05-15T20:20:24.198Z,101918.83
2019-05-15T20:22:54.554Z,101923.80
2019-05-15T20:25:24.693Z,101918.09
2019-05-15T20:27:55.035Z,101919.80
2019-05-15T20:30:25.247Z,101919.42
2019-05-15T20:32:58.489Z,101919.06
2019-05-15T20:35:29.951Z,101920.88
2019-05-15T20:38:00.303Z,101918.66
2019-05-15T20:40:30.679Z,101919.15
2019-05-15T20:43:01.065Z,101925.00
2019-05-15T20:45:31.351Z,101925.53
2019-05-15T20:48:01.501Z,101913.98
2019-05-15T20:50:31.586Z,101912.27
2019-05-15T20:53:01.889Z,101916.72
2019-05-15T20:55:32.247Z,101916.22
2019-05-15T20:58:02.558Z,101909.66
2019-05-15T21:00:33.330Z,101913.16
2019-05-15T21:03:03.416Z,101912.33
2019-05-15T21:05:33.625Z,101906.62
2019-05-15T21:08:03.812Z,101910.66
2019-05-15T21:10:33.916Z,101906.67
2019-05-15T21:13:04.255Z,101899.13
2019-05-15T21:15:36.649Z,101897.79
2019-05-15T21:18:14.665Z,101896.48
2019-05-15T21:20:38.986Z,101899.55
2019-05-15T21:23:09.268Z,101897.33
2019-05-15T21:25:40.260Z,101896.48
2019-05-15T21:28:10.428Z,101892.04
2019-05-15T21:30:41.208Z,101892.03
2019-05-15T21:33:11.422Z,101888.51
2019-05-15T21:35:41.609Z,101887.63
2019-05-15T21:38:11.879Z,101885.11
2019-05-15T21:40:42.136Z,101883.27
2019-05-15T21:43:13.897Z,101877.54
2019-05-15T21:45:44.096Z,101875.38
2019-05-15T21:48:15.279Z,101877.11
2019-05-15T21:50:45.447Z,101878.09
2019-05-15T21:53:17.620Z,101882.48
2019-05-15T21:55:50.698Z,101882.57
2019-05-15T21:58:20.999Z,101877.75
2019-05-15T22:00:54.158Z,101880.67
2019-05-15T22:03:28.523Z,101873.73
2019-05-15T22:05:58.966Z,101874.56
2019-05-15T22:08:29.169Z,101871.50
2019-05-15T22:10:59.699Z,101876.00
2019-05-15T22:13:31.605Z,101871.67
2019-05-15T22:16:01.840Z,101874.83
2019-05-15T22:18:31.998Z,101869.47
2019-05-15T22:21:02.315Z,101871.64
2019-05-15T22:23:33.522Z,101870.78
2019-05-15T22:26:03.636Z,101866.80
2019-05-15T22:28:33.797Z,101868.09
2019-05-15T22:31:03.908Z,101864.11
2019-05-15T22:33:34.002Z,101864.14
2019-05-15T22:36:04.199Z,101860.53
2019-05-15T22:38:34.322Z,101862.31
2019-05-15T22:41:04.487Z,101854.81
2019-05-15T22:43:36.094Z,101859.75
2019-05-15T22:46:07.755Z,101862.02
2019-05-15T22:48:38.190Z,101857.23
2019-05-15T22:51:09.251Z,101864.37
2019-05-15T22:53:39.748Z,101858.23
2019-05-15T22:56:09.910Z,101855.19
2019-05-15T22:58:40.068Z,101849.75
2019-05-15T23:01:10.271Z,101853.34
2019-05-15T23:03:40.436Z,101857.30
2019-05-15T23:06:10.650Z,101857.43
2019-05-15T23:08:40.811Z,101858.28
2019-05-15T23:11:10.940Z,101856.20
2019-05-15T23:13:41.124Z,101857.19
2019-05-15T23:16:11.230Z,101854.03
2019-05-15T23:18:41.694Z,101858.06
2019-05-15T23:21:12.940Z,101854.14
2019-05-15T23:23:44.926Z,101853.28
2019-05-15T23:26:15.152Z,101862.97
2019-05-15T23:28:45.286Z,101855.47
2019-05-15T23:31:15.392Z,101851.94
2019-05-15T23:33:45.516Z,101846.59
2019-05-15T23:36:17.900Z,101847.94
2019-05-15T23:38:48.131Z,101841.81
2019-05-15T23:41:18.876Z,101836.05
2019-05-15T23:43:49.242Z,101837.80
2019-05-15T23:46:19.338Z,101834.25
2019-05-15T23:48:49.460Z,101831.61
2019-05-15T23:51:19.556Z,101827.61
2019-05-15T23:53:49.702Z,101822.36
2019-05-15T23:56:19.835Z,101817.05
2019-05-15T23:58:50.180Z,101816.16
